sensor_id;sensor_type;location;lat;lon;timestamp;P1;durP1;ratioP1;P2;durP2;ratioP2
54921;SDS011;40824;45.116;21.296;2023-02-28T00:00:16;27.92;;;18.35;;
54921;SDS011;40824;45.116;21.296;2023-02-28T00:02:43;26.85;;;18.60;;
54921;SDS011;40824;45.116;21.296;2023-02-28T00:05:11;27.00;;;18.33;;
54921;SDS011;40824;45.116;21.296;2023-02-28T00:07:40;27.25;;;18.08;;
54921;SDS011;40824;45.116;21.296;2023-02-28T00:10:07;25.92;;;17.77;;
54921;SDS011;40824;45.116;21.296;2023-02-28T00:12:34;28.65;;;18.75;;
54921;SDS011;40824;45.116;21.296;2023-02-28T00:15:01;23.55;;;16.80;;
54921;SDS011;40824;45.116;21.296;2023-02-28T00:17:27;24.23;;;17.70;;
54921;SDS011;40824;45.116;21.296;2023-02-28T00:19:53;24.92;;;18.25;;
54921;SDS011;40824;45.116;21.296;2023-02-28T00:22:20;25.42;;;17.60;;
54921;SDS011;40824;45.116;21.296;2023-02-28T00:24:46;25.60;;;18.20;;
54921;SDS011;40824;45.116;21.296;2023-02-28T00:27:13;24.30;;;17.58;;
54921;SDS011;40824;45.116;21.296;2023-02-28T00:29:39;26.30;;;17.95;;
54921;SDS011;40824;45.116;21.296;2023-02-28T00:32:05;26.58;;;18.55;;
54921;SDS011;40824;45.116;21.296;2023-02-28T00:34:32;24.10;;;16.85;;
54921;SDS011;40824;45.116;21.296;2023-02-28T00:37:03;25.38;;;17.48;;
54921;SDS011;40824;45.116;21.296;2023-02-28T00:39:29;23.75;;;16.02;;
54921;SDS011;40824;45.116;21.296;2023-02-28T00:41:55;22.17;;;15.68;;
54921;SDS011;40824;45.116;21.296;2023-02-28T00:44:21;22.70;;;15.32;;
54921;SDS011;40824;45.116;21.296;2023-02-28T00:46:47;22.60;;;15.77;;
54921;SDS011;40824;45.116;21.296;2023-02-28T00:49:13;20.00;;;14.40;;
54921;SDS011;40824;45.116;21.296;2023-02-28T00:51:39;23.45;;;15.77;;
54921;SDS011;40824;45.116;21.296;2023-02-28T00:54:05;22.38;;;15.73;;
54921;SDS011;40824;45.116;21.296;2023-02-28T00:56:32;21.70;;;15.35;;
54921;SDS011;40824;45.116;21.296;2023-02-28T00:58:58;22.95;;;15.63;;
54921;SDS011;40824;45.116;21.296;2023-02-28T01:01:24;22.10;;;16.23;;
54921;SDS011;40824;45.116;21.296;2023-02-28T01:03:50;24.05;;;16.60;;
54921;SDS011;40824;45.116;21.296;2023-02-28T01:06:16;23.45;;;17.15;;
54921;SDS011;40824;45.116;21.296;2023-02-28T01:08:42;23.88;;;17.08;;
54921;SDS011;40824;45.116;21.296;2023-02-28T01:11:12;23.67;;;16.63;;
54921;SDS011;40824;45.116;21.296;2023-02-28T01:13:39;23.27;;;16.23;;
54921;SDS011;40824;45.116;21.296;2023-02-28T01:16:06;23.05;;;16.73;;
54921;SDS011;40824;45.116;21.296;2023-02-28T01:18:32;24.55;;;16.75;;
54921;SDS011;40824;45.116;21.296;2023-02-28T01:21:02;22.15;;;15.77;;
54921;SDS011;40824;45.116;21.296;2023-02-28T01:23:28;22.02;;;15.73;;
54921;SDS011;40824;45.116;21.296;2023-02-28T01:25:55;22.92;;;16.80;;
54921;SDS011;40824;45.116;21.296;2023-02-28T01:28:21;24.48;;;15.88;;
54921;SDS011;40824;45.116;21.296;2023-02-28T01:30:47;22.23;;;15.45;;
54921;SDS011;40824;45.116;21.296;2023-02-28T01:33:14;20.75;;;15.13;;
54921;SDS011;40824;45.116;21.296;2023-02-28T01:35:40;21.42;;;15.63;;
54921;SDS011;40824;45.116;21.296;2023-02-28T01:38:06;21.42;;;16.02;;
54921;SDS011;40824;45.116;21.296;2023-02-28T01:40:35;23.38;;;15.52;;
54921;SDS011;40824;45.116;21.296;2023-02-28T01:43:01;21.98;;;14.77;;
54921;SDS011;40824;45.116;21.296;2023-02-28T01:45:30;21.17;;;14.88;;
54921;SDS011;40824;45.116;21.296;2023-02-28T01:48:04;20.75;;;14.82;;
54921;SDS011;40824;45.116;21.296;2023-02-28T01:50:33;22.55;;;15.38;;
54921;SDS011;40824;45.116;21.296;2023-02-28T01:53:01;21.25;;;15.70;;
54921;SDS011;40824;45.116;21.296;2023-02-28T01:55:27;22.30;;;14.98;;
54921;SDS011;40824;45.116;21.296;2023-02-28T01:57:56;21.45;;;14.70;;
54921;SDS011;40824;45.116;21.296;2023-02-28T02:00:23;22.40;;;16.15;;
54921;SDS011;40824;45.116;21.296;2023-02-28T02:02:53;25.42;;;16.52;;
54921;SDS011;40824;45.116;21.296;2023-02-28T02:05:21;24.38;;;16.50;;
54921;SDS011;40824;45.116;21.296;2023-02-28T02:07:48;23.90;;;17.70;;
54921;SDS011;40824;45.116;21.296;2023-02-28T02:10:16;24.58;;;16.45;;
54921;SDS011;40824;45.116;21.296;2023-02-28T02:15:13;26.77;;;19.00;;
54921;SDS011;40824;45.116;21.296;2023-02-28T02:17:44;27.67;;;18.90;;
54921;SDS011;40824;45.116;21.296;2023-02-28T02:36:04;25.90;;;17.05;;
54921;SDS011;40824;45.116;21.296;2023-02-28T02:43:29;21.63;;;15.43;;
54921;SDS011;40824;45.116;21.296;2023-02-28T02:45:59;20.70;;;14.65;;
54921;SDS011;40824;45.116;21.296;2023-02-28T02:48:29;24.98;;;16.85;;
54921;SDS011;40824;45.116;21.296;2023-02-28T02:50:56;23.52;;;16.48;;
54921;SDS011;40824;45.116;21.296;2023-02-28T02:53:25;24.40;;;17.73;;
54921;SDS011;40824;45.116;21.296;2023-02-28T02:55:52;27.25;;;18.40;;
54921;SDS011;40824;45.116;21.296;2023-02-28T02:58:20;22.23;;;15.20;;
54921;SDS011;40824;45.116;21.296;2023-02-28T03:00:49;23.80;;;16.35;;
54921;SDS011;40824;45.116;21.296;2023-02-28T03:03:18;23.55;;;16.63;;
54921;SDS011;40824;45.116;21.296;2023-02-28T03:05:53;22.77;;;16.00;;
54921;SDS011;40824;45.116;21.296;2023-02-28T03:08:20;27.67;;;19.35;;
54921;SDS011;40824;45.116;21.296;2023-02-28T03:10:48;25.55;;;17.17;;
54921;SDS011;40824;45.116;21.296;2023-02-28T03:18:36;26.80;;;19.23;;
54921;SDS011;40824;45.116;21.296;2023-02-28T03:21:10;27.10;;;19.05;;
54921;SDS011;40824;45.116;21.296;2023-02-28T03:26:23;22.75;;;16.00;;
54921;SDS011;40824;45.116;21.296;2023-02-28T03:28:52;22.88;;;14.93;;
54921;SDS011;40824;45.116;21.296;2023-02-28T03:34:06;22.92;;;15.25;;
54921;SDS011;40824;45.116;21.296;2023-02-28T03:36:36;21.55;;;15.65;;
54921;SDS011;40824;45.116;21.296;2023-02-28T03:39:09;22.23;;;15.63;;
54921;SDS011;40824;45.116;21.296;2023-02-28T03:41:37;21.80;;;15.25;;
54921;SDS011;40824;45.116;21.296;2023-02-28T03:44:06;23.30;;;15.75;;
54921;SDS011;40824;45.116;21.296;2023-02-28T03:46:34;20.88;;;14.82;;
54921;SDS011;40824;45.116;21.296;2023-02-28T03:49:16;22.73;;;15.90;;
54921;SDS011;40824;45.116;21.296;2023-02-28T03:51:47;21.88;;;14.65;;
54921;SDS011;40824;45.116;21.296;2023-02-28T03:54:19;22.83;;;16.67;;
54921;SDS011;40824;45.116;21.296;2023-02-28T03:56:51;23.48;;;16.48;;
54921;SDS011;40824;45.116;21.296;2023-02-28T03:59:30;23.70;;;17.33;;
54921;SDS011;40824;45.116;21.296;2023-02-28T04:01:59;28.10;;;17.63;;
54921;SDS011;40824;45.116;21.296;2023-02-28T04:04:25;24.98;;;17.05;;
54921;SDS011;40824;45.116;21.296;2023-02-28T04:07:00;27.83;;;17.30;;
54921;SDS011;40824;45.116;21.296;2023-02-28T04:09:27;25.02;;;17.30;;
54921;SDS011;40824;45.116;21.296;2023-02-28T04:11:53;26.38;;;18.25;;
54921;SDS011;40824;45.116;21.296;2023-02-28T04:14:20;28.75;;;19.23;;
54921;SDS011;40824;45.116;21.296;2023-02-28T04:16:46;25.85;;;16.90;;
54921;SDS011;40824;45.116;21.296;2023-02-28T04:19:13;30.02;;;19.15;;
54921;SDS011;40824;45.116;21.296;2023-02-28T04:21:47;28.95;;;19.02;;
54921;SDS011;40824;45.116;21.296;2023-02-28T04:24:15;29.65;;;19.30;;
54921;SDS011;40824;45.116;21.296;2023-02-28T04:26:43;26.73;;;17.60;;
54921;SDS011;40824;45.116;21.296;2023-02-28T04:29:10;25.15;;;18.23;;
54921;SDS011;40824;45.116;21.296;2023-02-28T04:31:36;25.98;;;16.75;;
54921;SDS011;40824;45.116;21.296;2023-02-28T04:34:02;23.35;;;16.45;;
54921;SDS011;40824;45.116;21.296;2023-02-28T04:36:28;26.15;;;17.10;;
54921;SDS011;40824;45.116;21.296;2023-02-28T04:38:55;24.17;;;16.17;;
54921;SDS011;40824;45.116;21.296;2023-02-28T04:41:21;23.40;;;15.45;;
54921;SDS011;40824;45.116;21.296;2023-02-28T04:43:47;25.25;;;17.73;;
54921;SDS011;40824;45.116;21.296;2023-02-28T04:46:13;25.80;;;19.02;;
54921;SDS011;40824;45.116;21.296;2023-02-28T04:48:40;24.45;;;17.25;;
54921;SDS011;40824;45.116;21.296;2023-02-28T04:51:08;24.10;;;16.02;;
54921;SDS011;40824;45.116;21.296;2023-02-28T04:53:37;23.70;;;16.15;;
54921;SDS011;40824;45.116;21.296;2023-02-28T04:56:06;24.08;;;16.05;;
54921;SDS011;40824;45.116;21.296;2023-02-28T04:58:32;23.08;;;16.80;;
54921;SDS011;40824;45.116;21.296;2023-02-28T05:01:02;24.83;;;17.10;;
54921;SDS011;40824;45.116;21.296;2023-02-28T05:03:29;23.42;;;16.30;;
54921;SDS011;40824;45.116;21.296;2023-02-28T05:05:55;24.13;;;16.50;;
54921;SDS011;40824;45.116;21.296;2023-02-28T05:08:21;25.52;;;17.85;;
54921;SDS011;40824;45.116;21.296;2023-02-28T05:10:47;23.17;;;16.23;;
54921;SDS011;40824;45.116;21.296;2023-02-28T05:13:13;23.83;;;17.17;;
54921;SDS011;40824;45.116;21.296;2023-02-28T05:15:39;27.67;;;20.05;;
54921;SDS011;40824;45.116;21.296;2023-02-28T05:18:05;23.58;;;16.70;;
54921;SDS011;40824;45.116;21.296;2023-02-28T05:20:31;26.73;;;18.23;;
54921;SDS011;40824;45.116;21.296;2023-02-28T05:22:58;25.75;;;18.20;;
54921;SDS011;40824;45.116;21.296;2023-02-28T05:25:25;24.95;;;17.92;;
54921;SDS011;40824;45.116;21.296;2023-02-28T05:27:51;23.02;;;17.83;;
54921;SDS011;40824;45.116;21.296;2023-02-28T05:30:17;24.50;;;18.30;;
54921;SDS011;40824;45.116;21.296;2023-02-28T05:32:43;26.85;;;18.20;;
54921;SDS011;40824;45.116;21.296;2023-02-28T05:35:10;28.13;;;20.33;;
54921;SDS011;40824;45.116;21.296;2023-02-28T05:37:37;28.70;;;20.17;;
54921;SDS011;40824;45.116;21.296;2023-02-28T05:40:04;29.65;;;19.90;;
54921;SDS011;40824;45.116;21.296;2023-02-28T05:42:36;24.65;;;18.48;;
54921;SDS011;40824;45.116;21.296;2023-02-28T05:45:03;25.77;;;18.83;;
54921;SDS011;40824;45.116;21.296;2023-02-28T05:47:29;27.35;;;19.10;;
54921;SDS011;40824;45.116;21.296;2023-02-28T05:49:56;24.75;;;18.52;;
54921;SDS011;40824;45.116;21.296;2023-02-28T05:52:22;23.65;;;17.52;;
54921;SDS011;40824;45.116;21.296;2023-02-28T05:54:48;25.67;;;18.30;;
54921;SDS011;40824;45.116;21.296;2023-02-28T05:57:14;24.45;;;17.40;;
54921;SDS011;40824;45.116;21.296;2023-02-28T05:59:41;24.13;;;17.48;;
54921;SDS011;40824;45.116;21.296;2023-02-28T06:02:13;24.33;;;16.92;;
54921;SDS011;40824;45.116;21.296;2023-02-28T06:04:39;24.17;;;16.30;;
54921;SDS011;40824;45.116;21.296;2023-02-28T06:07:06;31.88;;;19.02;;
54921;SDS011;40824;45.116;21.296;2023-02-28T06:09:33;25.85;;;17.98;;
54921;SDS011;40824;45.116;21.296;2023-02-28T06:11:59;23.65;;;16.63;;
54921;SDS011;40824;45.116;21.296;2023-02-28T06:14:28;22.42;;;15.77;;
54921;SDS011;40824;45.116;21.296;2023-02-28T06:16:56;21.90;;;16.83;;
54921;SDS011;40824;45.116;21.296;2023-02-28T06:19:22;23.88;;;16.63;;
54921;SDS011;40824;45.116;21.296;2023-02-28T06:21:50;24.80;;;16.65;;
54921;SDS011;40824;45.116;21.296;2023-02-28T06:24:20;22.63;;;17.15;;
54921;SDS011;40824;45.116;21.296;2023-02-28T06:26:47;29.20;;;17.25;;
54921;SDS011;40824;45.116;21.296;2023-02-28T06:29:13;27.35;;;18.42;;
54921;SDS011;40824;45.116;21.296;2023-02-28T06:31:46;24.55;;;17.90;;
54921;SDS011;40824;45.116;21.296;2023-02-28T06:34:12;23.30;;;16.65;;
54921;SDS011;40824;45.116;21.296;2023-02-28T06:36:39;26.20;;;17.55;;
54921;SDS011;40824;45.116;21.296;2023-02-28T06:39:05;28.25;;;17.88;;
54921;SDS011;40824;45.116;21.296;2023-02-28T06:41:32;27.08;;;17.85;;
54921;SDS011;40824;45.116;21.296;2023-02-28T06:44:03;30.38;;;19.80;;
54921;SDS011;40824;45.116;21.296;2023-02-28T06:46:29;27.15;;;18.98;;
54921;SDS011;40824;45.116;21.296;2023-02-28T06:48:57;27.38;;;19.50;;
54921;SDS011;40824;45.116;21.296;2023-02-28T06:51:23;29.60;;;21.10;;
54921;SDS011;40824;45.116;21.296;2023-02-28T06:53:50;27.58;;;20.40;;
54921;SDS011;40824;45.116;21.296;2023-02-28T06:56:18;25.95;;;19.17;;
54921;SDS011;40824;45.116;21.296;2023-02-28T06:58:46;28.25;;;19.88;;
54921;SDS011;40824;45.116;21.296;2023-02-28T07:01:13;27.38;;;18.67;;
54921;SDS011;40824;45.116;21.296;2023-02-28T07:03:39;34.47;;;23.73;;
54921;SDS011;40824;45.116;21.296;2023-02-28T07:06:05;56.17;;;38.65;;
54921;SDS011;40824;45.116;21.296;2023-02-28T07:08:33;41.70;;;30.40;;
54921;SDS011;40824;45.116;21.296;2023-02-28T07:10:59;32.50;;;23.13;;
54921;SDS011;40824;45.116;21.296;2023-02-28T07:13:25;30.15;;;20.83;;
54921;SDS011;40824;45.116;21.296;2023-02-28T07:18:21;28.35;;;19.30;;
54921;SDS011;40824;45.116;21.296;2023-02-28T07:20:47;27.23;;;19.60;;
54921;SDS011;40824;45.116;21.296;2023-02-28T07:23:13;27.88;;;18.35;;
54921;SDS011;40824;45.116;21.296;2023-02-28T07:25:40;26.40;;;18.33;;
54921;SDS011;40824;45.116;21.296;2023-02-28T07:28:06;28.48;;;21.13;;
54921;SDS011;40824;45.116;21.296;2023-02-28T07:30:32;29.23;;;20.52;;
54921;SDS011;40824;45.116;21.296;2023-02-28T07:32:58;29.45;;;21.70;;
54921;SDS011;40824;45.116;21.296;2023-02-28T07:35:24;30.75;;;21.35;;
54921;SDS011;40824;45.116;21.296;2023-02-28T07:37:50;33.80;;;22.42;;
54921;SDS011;40824;45.116;21.296;2023-02-28T07:40:19;28.48;;;20.98;;
54921;SDS011;40824;45.116;21.296;2023-02-28T07:42:45;28.83;;;21.10;;
54921;SDS011;40824;45.116;21.296;2023-02-28T07:45:11;31.23;;;21.33;;
54921;SDS011;40824;45.116;21.296;2023-02-28T07:47:37;30.83;;;22.02;;
54921;SDS011;40824;45.116;21.296;2023-02-28T07:50:04;43.42;;;28.73;;
54921;SDS011;40824;45.116;21.296;2023-02-28T07:52:31;32.53;;;23.58;;
54921;SDS011;40824;45.116;21.296;2023-02-28T07:54:57;33.97;;;24.38;;
54921;SDS011;40824;45.116;21.296;2023-02-28T07:57:23;30.58;;;22.17;;
54921;SDS011;40824;45.116;21.296;2023-02-28T07:59:50;28.77;;;21.65;;
54921;SDS011;40824;45.116;21.296;2023-02-28T08:02:17;42.33;;;30.90;;
54921;SDS011;40824;45.116;21.296;2023-02-28T08:04:44;35.40;;;27.13;;
54921;SDS011;40824;45.116;21.296;2023-02-28T08:07:12;29.65;;;22.17;;
54921;SDS011;40824;45.116;21.296;2023-02-28T08:09:41;36.10;;;26.52;;
54921;SDS011;40824;45.116;21.296;2023-02-28T08:12:07;30.00;;;22.08;;
54921;SDS011;40824;45.116;21.296;2023-02-28T08:14:34;36.00;;;25.48;;
54921;SDS011;40824;45.116;21.296;2023-02-28T08:17:00;43.50;;;30.67;;
54921;SDS011;40824;45.116;21.296;2023-02-28T08:19:27;47.53;;;31.98;;
54921;SDS011;40824;45.116;21.296;2023-02-28T08:21:53;34.20;;;23.65;;
54921;SDS011;40824;45.116;21.296;2023-02-28T08:24:22;32.60;;;22.35;;
54921;SDS011;40824;45.116;21.296;2023-02-28T08:26:48;28.10;;;20.48;;
54921;SDS011;40824;45.116;21.296;2023-02-28T08:29:14;27.35;;;19.60;;
54921;SDS011;40824;45.116;21.296;2023-02-28T08:31:40;29.65;;;20.55;;
54921;SDS011;40824;45.116;21.296;2023-02-28T08:34:10;29.85;;;21.73;;
54921;SDS011;40824;45.116;21.296;2023-02-28T08:36:36;29.85;;;21.83;;
54921;SDS011;40824;45.116;21.296;2023-02-28T08:39:05;32.22;;;22.20;;
54921;SDS011;40824;45.116;21.296;2023-02-28T08:41:31;31.00;;;20.58;;
54921;SDS011;40824;45.116;21.296;2023-02-28T08:43:58;30.85;;;22.05;;
54921;SDS011;40824;45.116;21.296;2023-02-28T08:46:25;33.88;;;23.60;;
54921;SDS011;40824;45.116;21.296;2023-02-28T08:48:51;35.08;;;23.98;;
54921;SDS011;40824;45.116;21.296;2023-02-28T08:51:18;32.90;;;24.35;;
54921;SDS011;40824;45.116;21.296;2023-02-28T08:53:51;34.70;;;25.48;;
54921;SDS011;40824;45.116;21.296;2023-02-28T08:56:17;32.65;;;24.85;;
54921;SDS011;40824;45.116;21.296;2023-02-28T08:58:44;34.63;;;26.20;;
54921;SDS011;40824;45.116;21.296;2023-02-28T09:03:40;43.75;;;31.45;;
54921;SDS011;40824;45.116;21.296;2023-02-28T09:06:07;40.80;;;29.58;;
54921;SDS011;40824;45.116;21.296;2023-02-28T09:08:34;35.40;;;26.70;;
54921;SDS011;40824;45.116;21.296;2023-02-28T09:11:00;36.58;;;27.92;;
54921;SDS011;40824;45.116;21.296;2023-02-28T09:13:27;32.72;;;24.50;;
54921;SDS011;40824;45.116;21.296;2023-02-28T09:15:53;29.83;;;22.55;;
54921;SDS011;40824;45.116;21.296;2023-02-28T09:18:20;28.65;;;21.00;;
54921;SDS011;40824;45.116;21.296;2023-02-28T09:20:51;28.88;;;21.67;;
54921;SDS011;40824;45.116;21.296;2023-02-28T09:23:17;28.60;;;20.85;;
54921;SDS011;40824;45.116;21.296;2023-02-28T09:25:48;31.88;;;21.75;;
54921;SDS011;40824;45.116;21.296;2023-02-28T09:28:14;28.35;;;20.63;;
54921;SDS011;40824;45.116;21.296;2023-02-28T09:30:41;27.77;;;21.05;;
54921;SDS011;40824;45.116;21.296;2023-02-28T09:33:07;26.90;;;20.15;;
54921;SDS011;40824;45.116;21.296;2023-02-28T09:35:33;26.38;;;19.38;;
54921;SDS011;40824;45.116;21.296;2023-02-28T09:38:02;26.88;;;19.33;;
54921;SDS011;40824;45.116;21.296;2023-02-28T09:40:28;24.95;;;18.23;;
54921;SDS011;40824;45.116;21.296;2023-02-28T09:42:55;26.67;;;20.38;;
54921;SDS011;40824;45.116;21.296;2023-02-28T09:47:59;28.92;;;21.38;;
54921;SDS011;40824;45.116;21.296;2023-02-28T09:50:33;24.92;;;18.00;;
54921;SDS011;40824;45.116;21.296;2023-02-28T09:56:01;25.48;;;18.42;;
54921;SDS011;40824;45.116;21.296;2023-02-28T09:58:47;28.02;;;20.50;;
54921;SDS011;40824;45.116;21.296;2023-02-28T10:01:22;25.70;;;19.35;;
54921;SDS011;40824;45.116;21.296;2023-02-28T10:03:55;23.45;;;17.45;;
54921;SDS011;40824;45.116;21.296;2023-02-28T10:06:24;26.95;;;19.38;;
54921;SDS011;40824;45.116;21.296;2023-02-28T10:09:15;26.08;;;18.58;;
54921;SDS011;40824;45.116;21.296;2023-02-28T10:11:40;25.48;;;18.27;;
54921;SDS011;40824;45.116;21.296;2023-02-28T10:14:12;29.10;;;21.60;;
54921;SDS011;40824;45.116;21.296;2023-02-28T10:16:43;27.65;;;21.13;;
54921;SDS011;40824;45.116;21.296;2023-02-28T10:19:33;28.73;;;21.27;;
54921;SDS011;40824;45.116;21.296;2023-02-28T10:22:05;23.45;;;18.40;;
54921;SDS011;40824;45.116;21.296;2023-02-28T10:24:40;25.17;;;19.45;;
54921;SDS011;40824;45.116;21.296;2023-02-28T10:29:45;23.10;;;18.08;;
54921;SDS011;40824;45.116;21.296;2023-02-28T10:32:14;24.70;;;18.20;;
54921;SDS011;40824;45.116;21.296;2023-02-28T10:34:41;24.05;;;18.13;;
54921;SDS011;40824;45.116;21.296;2023-02-28T10:37:07;24.67;;;18.10;;
54921;SDS011;40824;45.116;21.296;2023-02-28T10:39:41;27.05;;;20.33;;
54921;SDS011;40824;45.116;21.296;2023-02-28T10:42:18;29.73;;;21.58;;
54921;SDS011;40824;45.116;21.296;2023-02-28T10:44:45;28.45;;;20.90;;
54921;SDS011;40824;45.116;21.296;2023-02-28T10:47:17;28.23;;;21.15;;
54921;SDS011;40824;45.116;21.296;2023-02-28T10:52:11;23.60;;;17.95;;
54921;SDS011;40824;45.116;21.296;2023-02-28T10:54:37;25.67;;;19.85;;
54921;SDS011;40824;45.116;21.296;2023-02-28T10:57:19;25.90;;;17.70;;
54921;SDS011;40824;45.116;21.296;2023-02-28T10:59:47;27.58;;;18.88;;
54921;SDS011;40824;45.116;21.296;2023-02-28T11:02:33;24.27;;;17.42;;
54921;SDS011;40824;45.116;21.296;2023-02-28T11:05:00;24.08;;;18.50;;
54921;SDS011;40824;45.116;21.296;2023-02-28T11:07:26;30.35;;;21.15;;
54921;SDS011;40824;45.116;21.296;2023-02-28T11:09:56;37.40;;;22.30;;
54921;SDS011;40824;45.116;21.296;2023-02-28T11:14:50;32.13;;;22.75;;
54921;SDS011;40824;45.116;21.296;2023-02-28T11:17:27;27.20;;;20.30;;
54921;SDS011;40824;45.116;21.296;2023-02-28T11:19:58;24.02;;;18.85;;
54921;SDS011;40824;45.116;21.296;2023-02-28T11:24:55;27.08;;;18.02;;
54921;SDS011;40824;45.116;21.296;2023-02-28T11:30:00;976.47;;;510.10;;
54921;SDS011;40824;45.116;21.296;2023-02-28T11:32:26;1560.90;;;798.97;;
54921;SDS011;40824;45.116;21.296;2023-02-28T11:37:35;178.85;;;159.30;;
54921;SDS011;40824;45.116;21.296;2023-02-28T11:40:01;51.35;;;43.95;;
54921;SDS011;40824;45.116;21.296;2023-02-28T11:47:39;33.97;;;25.05;;
54921;SDS011;40824;45.116;21.296;2023-02-28T11:55:24;32.15;;;23.98;;
54921;SDS011;40824;45.116;21.296;2023-02-28T12:01:12;38.67;;;28.50;;
54921;SDS011;40824;45.116;21.296;2023-02-28T12:09:20;76.85;;;55.67;;
54921;SDS011;40824;45.116;21.296;2023-02-28T12:14:10;160.38;;;141.35;;
54921;SDS011;40824;45.116;21.296;2023-02-28T12:16:45;108.90;;;92.70;;
54921;SDS011;40824;45.116;21.296;2023-02-28T12:19:21;34.30;;;27.17;;
54921;SDS011;40824;45.116;21.296;2023-02-28T12:26:56;311.90;;;140.20;;
54921;SDS011;40824;45.116;21.296;2023-02-28T12:29:33;94.18;;;65.82;;
54921;SDS011;40824;45.116;21.296;2023-02-28T12:32:19;53.35;;;45.45;;
54921;SDS011;40824;45.116;21.296;2023-02-28T12:34:47;109.78;;;98.82;;
54921;SDS011;40824;45.116;21.296;2023-02-28T12:37:20;41.78;;;33.55;;
54921;SDS011;40824;45.116;21.296;2023-02-28T12:39:48;40.60;;;33.17;;
54921;SDS011;40824;45.116;21.296;2023-02-28T12:47:53;41.70;;;29.77;;
54921;SDS011;40824;45.116;21.296;2023-02-28T12:50:20;34.35;;;28.30;;
54921;SDS011;40824;45.116;21.296;2023-02-28T12:58:00;33.92;;;25.85;;
54921;SDS011;40824;45.116;21.296;2023-02-28T13:00:29;39.50;;;28.20;;
54921;SDS011;40824;45.116;21.296;2023-02-28T13:05:39;97.88;;;61.15;;
54921;SDS011;40824;45.116;21.296;2023-02-28T13:10:41;43.03;;;29.75;;
54921;SDS011;40824;45.116;21.296;2023-02-28T13:13:11;33.67;;;25.48;;
54921;SDS011;40824;45.116;21.296;2023-02-28T13:15:56;33.42;;;25.08;;
54921;SDS011;40824;45.116;21.296;2023-02-28T13:18:45;41.88;;;29.65;;
54921;SDS011;40824;45.116;21.296;2023-02-28T13:21:24;61.35;;;40.10;;
54921;SDS011;40824;45.116;21.296;2023-02-28T13:31:30;45.15;;;31.85;;
54921;SDS011;40824;45.116;21.296;2023-02-28T13:34:19;48.42;;;35.47;;
54921;SDS011;40824;45.116;21.296;2023-02-28T13:36:46;75.50;;;43.80;;
54921;SDS011;40824;45.116;21.296;2023-02-28T13:41:57;184.85;;;101.57;;
54921;SDS011;40824;45.116;21.296;2023-02-28T13:45:19;49.47;;;40.22;;
54921;SDS011;40824;45.116;21.296;2023-02-28T13:47:41;33.33;;;25.38;;
54921;SDS011;40824;45.116;21.296;2023-02-28T13:55:27;37.20;;;26.67;;
54921;SDS011;40824;45.116;21.296;2023-02-28T14:05:28;36.40;;;26.05;;
54921;SDS011;40824;45.116;21.296;2023-02-28T14:07:57;38.13;;;24.38;;
54921;SDS011;40824;45.116;21.296;2023-02-28T14:16:00;35.60;;;26.13;;
54921;SDS011;40824;45.116;21.296;2023-02-28T14:20:55;37.67;;;26.42;;
54921;SDS011;40824;45.116;21.296;2023-02-28T14:31:06;89.97;;;52.55;;
54921;SDS011;40824;45.116;21.296;2023-02-28T14:36:25;40.83;;;30.10;;
54921;SDS011;40824;45.116;21.296;2023-02-28T14:38:53;146.13;;;67.70;;
54921;SDS011;40824;45.116;21.296;2023-02-28T14:43:54;103.57;;;68.97;;
54921;SDS011;40824;45.116;21.296;2023-02-28T14:46:20;79.05;;;58.72;;
54921;SDS011;40824;45.116;21.296;2023-02-28T14:48:48;51.40;;;41.42;;
54921;SDS011;40824;45.116;21.296;2023-02-28T14:51:18;47.65;;;33.80;;
54921;SDS011;40824;45.116;21.296;2023-02-28T14:53:47;38.15;;;28.88;;
54921;SDS011;40824;45.116;21.296;2023-02-28T14:56:29;203.20;;;99.40;;
54921;SDS011;40824;45.116;21.296;2023-02-28T14:58:56;88.82;;;49.58;;
54921;SDS011;40824;45.116;21.296;2023-02-28T15:01:23;90.70;;;54.45;;
54921;SDS011;40824;45.116;21.296;2023-02-28T15:03:56;66.80;;;45.88;;
54921;SDS011;40824;45.116;21.296;2023-02-28T15:09:05;121.72;;;87.72;;
54921;SDS011;40824;45.116;21.296;2023-02-28T15:11:32;43.40;;;35.00;;
54921;SDS011;40824;45.116;21.296;2023-02-28T15:13:58;75.03;;;42.35;;
54921;SDS011;40824;45.116;21.296;2023-02-28T15:16:30;495.35;;;189.90;;
54921;SDS011;40824;45.116;21.296;2023-02-28T15:18:59;456.92;;;188.68;;
54921;SDS011;40824;45.116;21.296;2023-02-28T15:23:59;42.78;;;34.17;;
54921;SDS011;40824;45.116;21.296;2023-02-28T15:26:27;40.67;;;29.63;;
54921;SDS011;40824;45.116;21.296;2023-02-28T15:28:58;35.70;;;28.67;;
54921;SDS011;40824;45.116;21.296;2023-02-28T15:34:18;472.10;;;184.25;;
54921;SDS011;40824;45.116;21.296;2023-02-28T15:36:45;587.92;;;216.02;;
54921;SDS011;40824;45.116;21.296;2023-02-28T15:39:21;754.38;;;342.38;;
54921;SDS011;40824;45.116;21.296;2023-02-28T15:41:49;514.33;;;240.88;;
54921;SDS011;40824;45.116;21.296;2023-02-28T15:44:28;259.95;;;167.50;;
54921;SDS011;40824;45.116;21.296;2023-02-28T15:47:01;64.72;;;47.20;;
54921;SDS011;40824;45.116;21.296;2023-02-28T15:49:29;123.15;;;86.40;;
54921;SDS011;40824;45.116;21.296;2023-02-28T15:51:58;114.78;;;66.47;;
54921;SDS011;40824;45.116;21.296;2023-02-28T15:54:34;225.90;;;139.30;;
54921;SDS011;40824;45.116;21.296;2023-02-28T15:57:05;52.40;;;38.70;;
54921;SDS011;40824;45.116;21.296;2023-02-28T15:59:33;43.72;;;32.85;;
54921;SDS011;40824;45.116;21.296;2023-02-28T16:02:02;44.72;;;36.45;;
54921;SDS011;40824;45.116;21.296;2023-02-28T16:04:28;43.38;;;29.60;;
54921;SDS011;40824;45.116;21.296;2023-02-28T16:09:26;38.92;;;29.02;;
54921;SDS011;40824;45.116;21.296;2023-02-28T16:11:53;36.13;;;27.98;;
54921;SDS011;40824;45.116;21.296;2023-02-28T16:14:23;35.70;;;26.25;;
54921;SDS011;40824;45.116;21.296;2023-02-28T16:16:51;34.92;;;26.00;;
54921;SDS011;40824;45.116;21.296;2023-02-28T16:19:18;34.08;;;23.45;;
54921;SDS011;40824;45.116;21.296;2023-02-28T16:21:44;32.80;;;24.90;;
54921;SDS011;40824;45.116;21.296;2023-02-28T16:24:10;47.92;;;35.22;;
54921;SDS011;40824;45.116;21.296;2023-02-28T16:26:36;48.60;;;35.60;;
54921;SDS011;40824;45.116;21.296;2023-02-28T16:29:04;51.25;;;37.22;;
54921;SDS011;40824;45.116;21.296;2023-02-28T16:31:32;54.95;;;42.63;;
54921;SDS011;40824;45.116;21.296;2023-02-28T16:34:01;71.60;;;51.83;;
54921;SDS011;40824;45.116;21.296;2023-02-28T16:36:28;57.17;;;43.35;;
54921;SDS011;40824;45.116;21.296;2023-02-28T16:38:54;59.58;;;44.38;;
54921;SDS011;40824;45.116;21.296;2023-02-28T16:41:22;63.97;;;47.70;;
54921;SDS011;40824;45.116;21.296;2023-02-28T16:43:50;54.42;;;40.92;;
54921;SDS011;40824;45.116;21.296;2023-02-28T16:46:17;127.18;;;81.65;;
54921;SDS011;40824;45.116;21.296;2023-02-28T16:48:44;168.38;;;100.15;;
54921;SDS011;40824;45.116;21.296;2023-02-28T16:51:11;229.43;;;130.98;;